KFMY/FMY METAR and TAF weather

Enter ICAO airport designator
Station Type Date Time Source
KFMY METAR 2021/02/25 01:53 UTC NOAA

KFMY 250153Z 32005KT 10SM CLR 20/16 A3013 RMK AO2 SLP206 T02000156


Station Type Date Time Source
KFMY Decoded METAR 2021/02/25 01:53 UTC NOAA

FORT MYERS PAGE FIELD, FL, United States (KFMY) 26-35N 081-52W 4M
Feb 24, 2021 - 08:53 PM EST / 2021.02.25 0153 UTC
Wind: from the NW (320 degrees) at 6 MPH (5 KT):0
Visibility: 10 mile(s):0
Sky conditions: clear
Temperature: 68.0 F (20.0 C)
Dew Point: 60.1 F (15.6 C)
Relative Humidity: 75%
Pressure (altimeter): 30.13 in. Hg (1020 hPa)
ob: KFMY 250153Z 32005KT 10SM CLR 20/16 A3013 RMK AO2 SLP206 T02000156
cycle: 2

Station Type Date Time Source
KFMY TAF 2021/02/24 18:30 UTC NOAA

TAF KFMY 241727Z 2418/2518 20006KT P6SM SCT030 BKN050
FM242000 27008KT P6SM SCT030
FM250100 VRB04KT P6SM SKC
FM251500 01007KT P6SM FEW030

Example: see airport list